Etusivu
METAR-TAF:

METAR-TAF

Lentoasemat :

Thomas County Airport

Thedford, Nebraska, Yhdysvallat

Leveyspiiri: 41-57-43N, Pituuspiiri: 100-34-08W, korkeus merenpinnasta: 892 m

Tämänhetkinen sää

Tämä raportti tehtiin 32 minuuttia sitten, kello 19.55 UTC
Tuuli 14 kn idästä puuskistuen 21 kn:hen
Lämpötila 27°C
Kosteus 42%
Ilmanpaine 1018 hPa
Näkyvyys: 16.1 km
selkeää

METAR: KTIF 131955Z AUTO 09014G21KT 10SM CLR 27/13 A3005 RMK AO2 T02660130

Aika: 15:27 (20:27 UTC)


TAF: puuttuu

Säähavainnot ja -ennusteet yli 4000 lentoasemalta (METAR- ja TAF-raportit).

Käytössä olevat sääasemat on merkitty karttaan keltaisilla ja punaisilla pisteillä.

Aseta hiiri pisteen päälle nähdäksesi sääaseman nimen.

Klikkaa sitten nähdäksesi säähavainnot ja -ennusteet.

Kartan vaihtaminen: klikkaa mustalla rastilla varustettuja vihreitä pisteitä, niin voit zoomata sisään; viivalla varustettua vihreää pistettä, niin voit zoomata ulos tai vihreitä nuolia, niin pääset viereisille kartoille.


METAR-TAF: